»·PEaware :: N5495Q KVNY-KABQ

N5495Q :: KVNY-KABQ

FLIGHT INFORMATION

Flight Status: Arrived
Operator: Privately registered:
United States
More flights under this callsign
Pilot: Justin C. (30559)
Aircraft: BEECH AIRCRAFT A90-E90 KING AIR
(BE9L)
More flights by this aircraft type
Origin: KVNY Van Nuys
United States
Destination: KABQ Albuquerque Intl Sunport
United States
More flights between these airports :: More routes between these airports
Route: +ADAMM3 ADAMM V186 ITSME V264 POM V197 PDZ PSP PKE SJN LAVAN LAVAN3
File this flight plan on PilotEdge
Remarks:
Altitude:
(Current/Filed)
19,000ft
Speed:
(Current/Filed)
210kts
Departed: 02-Aug-20 10:22 AM
Arrived: 02-Aug-20 12:06 PM
Distance/Time
Traveled:
588nm/1:43
Distance/Time
To Go:
Arrived

Flight Plot

Page will automatically refresh every two minutes.

Flight plan parsing failed; only flown route is shown


Map Options




Map Legend


Flown Route
Filed Route
Departure Airport
Arrival Airport
Navaid (VOR, NDB)
Fix

Horizontal Profiles

Position Reports

Time Latitude Longitude Heading Altitude Ground
Speed
02-Aug-20 09:50 34.209912 -118.492038 87 805ft 0kts
02-Aug-20 09:51 34.209912 -118.492038 87 805ft 0kts
02-Aug-20 09:52 34.209912 -118.492038 87 805ft 0kts
02-Aug-20 09:54 34.209912 -118.492038 87 805ft 0kts
02-Aug-20 09:55 34.209912 -118.492038 87 805ft 0kts
02-Aug-20 09:56 34.209912 -118.492038 87 805ft 0kts
02-Aug-20 09:57 34.209912 -118.492039 87 805ft 0kts
02-Aug-20 09:58 34.209912 -118.492039 87 805ft 0kts
02-Aug-20 09:59 34.209912 -118.492039 87 805ft 0kts
02-Aug-20 10:00 34.209912 -118.492039 87 805ft 0kts
02-Aug-20 10:01 34.209912 -118.492039 87 805ft 0kts
02-Aug-20 10:02 34.209912 -118.492039 87 805ft 0kts
02-Aug-20 10:03 34.209912 -118.492039 87 805ft 0kts
02-Aug-20 10:04 34.209912 -118.492039 87 805ft 0kts
02-Aug-20 10:05 34.209912 -118.492039 87 805ft 0kts
02-Aug-20 10:06 34.209912 -118.492039 87 805ft 0kts
02-Aug-20 10:07 34.209912 -118.492039 87 805ft 0kts
02-Aug-20 10:08 34.209912 -118.492039 87 805ft 0kts
02-Aug-20 10:09 34.209912 -118.492039 87 805ft 0kts
02-Aug-20 10:10 34.209912 -118.492039 87 805ft 0kts
02-Aug-20 10:11 34.209912 -118.492039 87 805ft 0kts
02-Aug-20 10:11 34.209912 -118.492039 87 805ft 0kts
02-Aug-20 10:13 34.209913 -118.492038 87 805ft 0kts
02-Aug-20 10:14 34.211626 -118.491730 355 805ft 7kts
02-Aug-20 10:14 34.214016 -118.491941 356 805ft 4kts
02-Aug-20 10:15 34.215005 -118.492067 348 805ft 5kts
02-Aug-20 10:17 34.218324 -118.492347 2 805ft 4kts
02-Aug-20 10:17 34.218613 -118.492232 27 805ft 0kts
02-Aug-20 10:18 34.218613 -118.492232 27 805ft 0kts
02-Aug-20 10:19 34.218613 -118.492232 27 805ft 0kts
02-Aug-20 10:20 34.218627 -118.492222 31 805ft 1kts
02-Aug-20 10:21 34.214391 -118.490799 178 805ft 86kts
02-Aug-20 10:22 34.179139 -118.487300 165 1659ft 141kts
02-Aug-20 10:23 34.152254 -118.451096 133 2943ft 154kts
02-Aug-20 10:24 34.116668 -118.436888 196 4237ft 143kts
02-Aug-20 10:25 34.121749 -118.464637 31 4945ft 182kts
02-Aug-20 10:26 34.133293 -118.410793 91 5457ft 168kts
02-Aug-20 10:27 34.129763 -118.356523 110 5781ft 156kts
02-Aug-20 10:28 34.120896 -118.303968 99 6755ft 163kts
02-Aug-20 10:29 34.111624 -118.246565 105 7110ft 194kts
02-Aug-20 10:30 34.102010 -118.181081 102 7483ft 200kts
02-Aug-20 10:31 34.093415 -118.115891 102 8055ft 201kts
02-Aug-20 10:32 34.087748 -118.040043 91 7466ft 212kts
02-Aug-20 10:33 34.088933 -117.974861 91 6950ft 181kts
02-Aug-20 10:34 34.084677 -117.912218 99 7269ft 190kts
02-Aug-20 10:35 34.076633 -117.849655 96 7379ft 187kts
02-Aug-20 10:36 34.074667 -117.788276 102 7390ft 184kts
02-Aug-20 10:37 34.044594 -117.733239 125 6722ft 212kts
02-Aug-20 10:38 34.011702 -117.679762 125 6948ft 184kts
02-Aug-20 10:39 33.980977 -117.630348 126 6982ft 188kts
02-Aug-20 10:40 33.947548 -117.576720 126 7001ft 207kts
02-Aug-20 10:41 33.909810 -117.523106 144 7006ft 211kts
02-Aug-20 10:42 33.865907 -117.485983 145 7001ft 213kts
02-Aug-20 10:43 33.816926 -117.444908 145 7056ft 210kts
02-Aug-20 10:44 33.771393 -117.406776 146 7785ft 187kts
02-Aug-20 10:45 33.731830 -117.370142 110 8576ft 175kts
02-Aug-20 10:46 33.726257 -117.314039 93 9378ft 165kts
02-Aug-20 10:47 33.721808 -117.259301 94 10092ft 164kts
02-Aug-20 10:48 33.717401 -117.204963 95 10777ft 162kts
02-Aug-20 10:49 33.712988 -117.150823 95 11428ft 161kts
02-Aug-20 10:50 33.708571 -117.096866 95 11987ft 163kts
02-Aug-20 10:51 33.704074 -117.042112 95 12635ft 165kts
02-Aug-20 10:52 33.699558 -116.987498 96 13330ft 164kts
02-Aug-20 10:53 33.694969 -116.932369 97 13952ft 165kts
02-Aug-20 10:54 33.690351 -116.877191 96 14530ft 165kts
02-Aug-20 10:55 33.685882 -116.824057 96 15028ft 166kts
02-Aug-20 10:56 33.681390 -116.770879 97 15484ft 167kts
02-Aug-20 10:57 33.676639 -116.714955 94 15920ft 168kts
02-Aug-20 10:58 33.671852 -116.658848 94 16320ft 169kts
02-Aug-20 10:59 33.667020 -116.602576 96 16686ft 170kts
02-Aug-20 11:00 33.662147 -116.546162 95 17023ft 170kts
02-Aug-20 11:01 33.657222 -116.489385 93 17337ft 171kts
02-Aug-20 11:02 33.652245 -116.432318 96 17625ft 171kts
02-Aug-20 11:03 33.647201 -116.374876 94 17891ft 172kts
02-Aug-20 11:04 33.642167 -116.317741 94 18120ft 172kts
02-Aug-20 11:05 33.637097 -116.260568 97 18319ft 172kts
02-Aug-20 11:06 33.631961 -116.202991 94 18504ft 173kts
02-Aug-20 11:07 33.632990 -116.146257 65 18616ft 172kts
02-Aug-20 11:08 33.650116 -116.093299 63 18824ft 169kts
02-Aug-20 11:09 33.667530 -116.040016 65 18931ft 173kts
02-Aug-20 11:10 33.685543 -115.984874 64 18934ft 181kts
02-Aug-20 11:11 33.704289 -115.927381 64 18934ft 186kts
02-Aug-20 11:12 33.723182 -115.869343 64 18979ft 187kts
02-Aug-20 11:13 33.742315 -115.810468 64 18979ft 190kts
02-Aug-20 11:14 33.761573 -115.751090 64 18979ft 191kts
02-Aug-20 11:15 33.780921 -115.691324 64 18980ft 192kts
02-Aug-20 11:16 33.800317 -115.631292 64 18980ft 193kts
02-Aug-20 11:17 33.819809 -115.570845 64 18980ft 193kts
02-Aug-20 11:18 33.839211 -115.510560 64 18980ft 193kts
02-Aug-20 11:19 33.858706 -115.449865 64 18980ft 194kts
02-Aug-20 11:20 33.878131 -115.389268 64 18987ft 194kts
02-Aug-20 11:21 33.897558 -115.328553 65 18992ft 193kts
02-Aug-20 11:22 33.916823 -115.268215 65 19001ft 192kts
02-Aug-20 11:23 33.936016 -115.207987 65 19012ft 192kts
02-Aug-20 11:24 33.955130 -115.147873 64 19014ft 193kts
02-Aug-20 11:25 33.974349 -115.087319 64 19014ft 193kts
02-Aug-20 11:26 33.993518 -115.026803 64 19014ft 193kts
02-Aug-20 11:27 34.012920 -114.965427 63 19014ft 194kts
02-Aug-20 11:28 34.032233 -114.904232 63 19014ft 194kts
02-Aug-20 11:29 34.051175 -114.844078 63 19015ft 194kts
02-Aug-20 11:30 34.070556 -114.782396 63 19015ft 194kts
02-Aug-20 11:31 34.090008 -114.720365 63 19015ft 195kts
02-Aug-20 11:32 34.103964 -114.656493 80 19022ft 198kts
02-Aug-20 11:33 34.109479 -114.589036 80 19023ft 200kts
02-Aug-20 11:34 34.114877 -114.521586 80 19026ft 200kts
02-Aug-20 11:35 34.114988 -114.520186 80 19026ft 200kts
02-Aug-20 12:06 35.035857 -106.618995 137 5307ft 0kts
02-Aug-20 12:07 35.035857 -106.618995 137 5307ft 0kts
02-Aug-20 12:08 35.035857 -106.618995 137 5307ft 0kts
02-Aug-20 12:09 35.035857 -106.618995 137 5307ft 0kts
02-Aug-20 12:10 35.035857 -106.618995 137 5307ft 0kts
02-Aug-20 12:10 35.035857 -106.618995 137 5307ft 0kts
02-Aug-20 12:12 35.035857 -106.618995 137 5307ft 0kts
02-Aug-20 12:13 35.035857 -106.618995 137 5307ft 0kts
02-Aug-20 12:13 35.035857 -106.618995 137 5307ft 0kts
02-Aug-20 12:14 35.035857 -106.618995 137 5307ft 0kts

Navigation Log

Ident Type
Flight plan parsing failed, navigation log unavailable